National Weather Service Raw Text Product

Displaying AFOS PIL: TAFOTM Received: 2018-01-03 01:01 UTC


452 
FTUS43 KDMX 030101 AAA
TAFOTM
TAF AMD
KOTM 030101Z 0301/0324 21013G19KT P6SM FEW100 SCT200
     FM030300 23013G19KT P6SM FEW070 SCT120 BKN200
      TEMPO 0303/0305 1SM -SN SCT007 BKN015
     FM030600 25014G21KT P6SM SCT050 BKN090
     FM030800 29011G17KT P6SM BKN060
     FM031200 31016G24KT P6SM SCT040=